Time;durP1;ratioP1;P1;durP2;ratioP2;P2;SDS_P1;SDS_P2;PMS_P1;PMS_P2;Temp;Humidity;BMP_temperature;BMP_pressure;BME280_temperature;BME280_humidity;BME280_pressure;Samples;Min_cycle;Max_cycle;Signal;HPM_P1;HPM_P2
2022/08/16 00:00:43;;;;;;;1.17;0.35;;;15.00;99.90;;;;;;4954525;29;20395;-76
2022/08/16 00:03:11;;;;;;;1.52;0.30;;;15.00;99.90;;;;;;4956755;28;20023;-76
2022/08/16 00:05:39;;;;;;;0.63;0.13;;;15.10;99.90;;;;;;4955921;28;20035;-75
2022/08/16 00:08:06;;;;;;;0.43;0.30;;;15.20;99.90;;;;;;4954988;29;20032;-75
2022/08/16 00:10:35;;;;;;;0.85;0.20;;;15.20;99.90;;;;;;4954365;29;20028;-75
2022/08/16 00:13:05;;;;;;;0.70;0.22;;;15.40;99.90;;;;;;4954646;29;20069;-75
2022/08/16 00:15:47;;;;;;;0.57;0.20;;;15.40;99.90;;;;;;4954578;29;20035;-75
2022/08/16 00:18:18;;;;;;;0.88;0.30;;;15.40;99.90;;;;;;4954137;29;20038;-75
2022/08/16 00:20:47;;;;;;;0.45;0.25;;;15.60;99.90;;;;;;4938343;29;20122;-74
2022/08/16 00:23:15;;;;;;;1.33;0.30;;;15.60;99.90;;;;;;4956127;28;20031;-75
2022/08/16 00:25:43;;;;;;;1.20;0.30;;;15.80;99.90;;;;;;4959205;28;20445;-75
2022/08/16 00:28:11;;;;;;;1.05;0.30;;;15.80;99.90;;;;;;4958797;29;20123;-74
2022/08/16 00:30:39;;;;;;;0.30;0.10;;;16.00;99.90;;;;;;4960018;28;20047;-76
2022/08/16 00:33:07;;;;;;;3.05;0.28;;;15.80;99.90;;;;;;4942664;29;20118;-75
2022/08/16 00:35:38;;;;;;;2.13;0.22;;;15.70;99.90;;;;;;4960650;28;20024;-76
2022/08/16 00:38:06;;;;;;;1.70;0.20;;;15.80;99.90;;;;;;4960367;28;20038;-77
2022/08/16 00:40:46;;;;;;;1.20;0.20;;;15.90;99.90;;;;;;4960562;28;20043;-76
2022/08/16 00:43:29;;;;;;;1.23;0.30;;;16.00;99.90;;;;;;4960083;28;20039;-76
2022/08/16 00:46:11;;;;;;;1.45;0.40;;;15.70;99.90;;;;;;4959423;28;20476;-76
2022/08/16 00:48:40;;;;;;;1.70;0.28;;;15.80;99.90;;;;;;4957717;29;20476;-75
2022/08/16 00:51:08;;;;;;;0.77;0.30;;;16.00;99.90;;;;;;4958955;28;20019;-74
2022/08/16 00:53:35;;;;;;;1.05;0.30;;;16.00;99.90;;;;;;4957535;29;20023;-76
2022/08/16 00:56:08;;;;;;;1.80;0.40;;;15.80;99.90;;;;;;4957703;29;20034;-75
2022/08/16 00:58:39;;;;;;;1.38;0.80;;;15.80;99.90;;;;;;4957709;29;20391;-74
2022/08/16 01:01:12;;;;;;;0.85;0.22;;;15.90;99.90;;;;;;4958672;28;20086;-74
2022/08/16 01:03:43;;;;;;;1.42;0.43;;;16.00;99.90;;;;;;4957633;29;20476;-74
2022/08/16 01:06:11;;;;;;;1.77;0.40;;;16.30;99.90;;;;;;4958644;28;20039;-75
2022/08/16 01:08:40;;;;;;;2.33;0.38;;;16.30;99.90;;;;;;4958286;28;20054;-75
2022/08/16 01:11:08;;;;;;;3.60;0.57;;;16.30;99.90;;;;;;4958551;28;20387;-76
2022/08/16 01:13:37;;;;;;;1.38;0.40;;;16.50;99.90;;;;;;4941286;29;20039;-75
2022/08/16 01:16:15;;;;;;;3.00;0.50;;;16.70;99.90;;;;;;4958462;28;20046;-76
2022/08/16 01:19:09;;;;;;;1.67;0.50;;;16.70;99.90;;;;;;4959048;28;20499;-77
2022/08/16 01:21:57;;;;;;;2.42;0.50;;;16.90;99.90;;;;;;4957037;29;20023;-75
2022/08/16 01:24:33;;;;;;;0.50;0.20;;;16.70;99.90;;;;;;4958555;28;20031;-77
2022/08/16 01:27:06;;;;;;;0.65;0.32;;;16.80;99.90;;;;;;4959042;28;20078;-76
2022/08/16 01:29:49;;;;;;;1.27;0.20;;;16.80;99.90;;;;;;4958930;28;20043;-76
2022/08/16 01:32:17;;;;;;;1.35;0.75;;;16.70;99.90;;;;;;4941491;29;20042;-77
2022/08/16 01:34:45;;;;;;;1.10;0.20;;;16.70;99.90;;;;;;4957772;28;20027;-76
2022/08/16 01:37:13;;;;;;;3.72;0.40;;;16.70;99.80;;;;;;4957081;29;20118;-76
2022/08/16 01:39:42;;;;;;;2.78;0.40;;;17.10;99.90;;;;;;4956787;29;20034;-75
2022/08/16 01:42:10;;;;;;;1.55;0.30;;;17.20;99.90;;;;;;4957977;28;20027;-75
2022/08/16 01:44:39;;;;;;;1.27;0.40;;;17.20;99.80;;;;;;4957865;28;20542;-75
2022/08/16 01:47:07;;;;;;;1.60;0.28;;;17.40;99.60;;;;;;4957905;28;20078;-77
2022/08/16 01:49:38;;;;;;;1.35;0.40;;;17.60;99.40;;;;;;4957718;28;20484;-77
2022/08/16 01:52:11;;;;;;;2.65;0.40;;;17.30;99.60;;;;;;4957053;29;20110;-76
2022/08/16 01:54:40;;;;;;;2.45;0.40;;;17.20;99.60;;;;;;4956911;29;20487;-76
2022/08/16 01:57:09;;;;;;;0.93;0.50;;;17.10;99.00;;;;;;4956942;29;20027;-77
2022/08/16 01:59:38;;;;;;;1.95;0.40;;;17.30;99.20;;;;;;4958136;28;20027;-77
2022/08/16 02:02:06;;;;;;;4.30;0.38;;;17.50;99.30;;;;;;4957913;28;20573;-77
2022/08/16 02:04:35;;;;;;;0.90;0.32;;;17.60;99.10;;;;;;4956967;29;20110;-76
2022/08/16 02:07:07;;;;;;;0.63;0.30;;;17.60;98.30;;;;;;4941226;29;20186;-77
2022/08/16 02:09:36;;;;;;;0.70;0.30;;;17.70;98.50;;;;;;4956879;29;20031;-76
2022/08/16 02:12:06;;;;;;;1.77;0.50;;;18.10;98.60;;;;;;4958176;28;20107;-77
2022/08/16 02:14:34;;;;;;;4.35;0.50;;;18.10;98.80;;;;;;4956498;29;20118;-77
2022/08/16 02:17:05;;;;;;;0.93;0.20;;;18.10;98.50;;;;;;4956945;29;20032;-77
2022/08/16 02:19:35;;;;;;;1.38;0.47;;;18.40;98.60;;;;;;4957503;29;20125;-77
2022/08/16 02:22:04;;;;;;;0.40;0.30;;;18.30;97.70;;;;;;4956789;29;20039;-76
2022/08/16 02:24:31;;;;;;;0.40;0.30;;;18.20;98.10;;;;;;4957824;28;20532;-78
2022/08/16 02:26:59;;;;;;;0.60;0.25;;;18.10;97.60;;;;;;4956352;29;20027;-77
2022/08/16 02:29:26;;;;;;;1.13;0.28;;;18.30;97.70;;;;;;4957570;28;20046;-78
2022/08/16 02:31:54;;;;;;;1.75;0.25;;;18.20;96.50;;;;;;4956616;29;20519;-77
2022/08/16 02:34:21;;;;;;;0.52;0.22;;;18.20;96.90;;;;;;4957169;28;20030;-76
2022/08/16 02:36:49;;;;;;;0.30;0.10;;;18.20;96.10;;;;;;4957179;28;20020;-77
2022/08/16 02:39:18;;;;;;;1.33;0.22;;;18.40;96.20;;;;;;5125724;23;20055;-74
2022/08/16 02:41:49;;;;;;;0.65;0.50;;;18.30;95.40;;;;;;4955563;29;20090;-75
2022/08/16 02:44:19;;;;;;;0.90;0.20;;;18.20;95.80;;;;;;4956916;28;20023;-74
2022/08/16 02:46:47;;;;;;;0.77;0.10;;;18.20;95.30;;;;;;4954315;28;20110;-73
2022/08/16 02:49:15;;;;;;;0.20;0.10;;;17.90;95.50;;;;;;4954971;29;20054;-74
2022/08/16 02:51:43;;;;;;;0.63;0.28;;;17.80;96.00;;;;;;4955061;29;20031;-73
2022/08/16 02:54:13;;;;;;;0.55;0.20;;;17.70;95.20;;;;;;4956624;28;20019;-72
2022/08/16 02:56:42;;;;;;;1.88;0.10;;;18.10;95.80;;;;;;4956657;28;20031;-73
2022/08/16 02:59:10;;;;;;;1.63;0.17;;;18.10;94.50;;;;;;4955216;29;20027;-74
2022/08/16 03:01:37;;;;;;;0.30;0.10;;;18.40;94.60;;;;;;4956191;28;20035;-73
2022/08/16 03:04:06;;;;;;;3.50;0.28;;;18.50;94.00;;;;;;4956177;28;20026;-74
2022/08/16 03:06:34;;;;;;;0.30;0.10;;;18.50;93.90;;;;;;4956184;28;20031;-74
2022/08/16 03:09:02;;;;;;;1.88;0.30;;;18.70;94.10;;;;;;4954650;29;20432;-75
2022/08/16 03:11:32;;;;;;;1.02;0.17;;;18.80;93.90;;;;;;4956009;28;20019;-74
2022/08/16 03:14:00;;;;;;;1.77;0.20;;;18.90;93.80;;;;;;4956034;28;20023;-75
2022/08/16 03:16:27;;;;;;;3.35;0.35;;;18.70;93.30;;;;;;4955995;28;20058;-74
2022/08/16 03:18:55;;;;;;;0.95;0.10;;;18.60;93.60;;;;;;4954596;29;20062;-74
2022/08/16 03:21:23;;;;;;;1.85;0.25;;;18.80;93.70;;;;;;4954572;29;20133;-75
2022/08/16 03:23:50;;;;;;;2.05;0.25;;;19.10;93.40;;;;;;4954780;29;20031;-74
2022/08/16 03:26:18;;;;;;;1.38;0.40;;;19.30;93.30;;;;;;4954457;29;20035;-74
2022/08/16 03:28:45;;;;;;;1.10;0.30;;;19.10;92.60;;;;;;4954485;29;20046;-74
2022/08/16 03:31:12;;;;;;;1.00;0.45;;;19.20;92.80;;;;;;4954310;29;20498;-73
2022/08/16 03:33:40;;;;;;;2.13;0.30;;;19.40;92.50;;;;;;4954283;29;20023;-74
2022/08/16 03:36:08;;;;;;;0.57;0.15;;;19.40;92.90;;;;;;4954329;29;20545;-73
2022/08/16 03:38:35;;;;;;;0.63;0.20;;;19.20;92.20;;;;;;4955671;28;20035;-75
2022/08/16 03:41:05;;;;;;;1.92;0.30;;;19.30;92.20;;;;;;4954006;28;20055;-74
2022/08/16 03:43:32;;;;;;;0.77;0.22;;;18.70;92.20;;;;;;4954442;29;20023;-73
2022/08/16 03:46:01;;;;;;;0.47;0.30;;;18.50;92.40;;;;;;4955498;28;20037;-72
2022/08/16 03:48:32;;;;;;;1.75;0.25;;;18.50;92.40;;;;;;4954144;29;20122;-74
2022/08/16 03:51:01;;;;;;;0.77;0.35;;;18.50;93.10;;;;;;4955755;28;20019;-74
2022/08/16 03:53:29;;;;;;;0.43;0.20;;;18.40;93.30;;;;;;4954150;29;20480;-74
2022/08/16 03:55:59;;;;;;;1.27;0.20;;;18.30;93.10;;;;;;4955428;28;20030;-74
2022/08/16 03:58:29;;;;;;;0.70;0.20;;;18.20;93.20;;;;;;4955293;28;20104;-74
2022/08/16 04:00:57;;;;;;;1.27;0.20;;;18.20;93.20;;;;;;4954114;29;20035;-73
2022/08/16 04:03:24;;;;;;;1.17;0.20;;;18.40;92.90;;;;;;4955346;28;20028;-74
2022/08/16 04:05:51;;;;;;;0.25;0.10;;;18.50;93.40;;;;;;4955605;28;20028;-72
2022/08/16 04:08:20;;;;;;;0.47;0.20;;;18.40;93.50;;;;;;4953801;29;20035;-72
2022/08/16 04:10:50;;;;;;;2.83;0.15;;;18.50;92.70;;;;;;4953863;29;20048;-72
2022/08/16 04:13:18;;;;;;;0.60;0.30;;;18.70;91.90;;;;;;4955344;28;20028;-73
2022/08/16 04:15:46;;;;;;;2.05;0.30;;;18.90;92.10;;;;;;4955449;28;20110;-73
2022/08/16 04:18:15;;;;;;;0.55;0.17;;;19.30;91.70;;;;;;4953642;29;20454;-73
2022/08/16 04:20:42;;;;;;;2.45;0.30;;;19.20;91.50;;;;;;4955112;28;20019;-73
2022/08/16 04:23:10;;;;;;;0.60;0.30;;;19.10;91.80;;;;;;4953730;29;20502;-73
2022/08/16 04:25:38;;;;;;;3.10;0.38;;;19.40;91.80;;;;;;4953825;29;20504;-73
2022/08/16 04:28:05;;;;;;;2.35;1.05;;;19.40;91.60;;;;;;4953520;29;20031;-74
2022/08/16 04:30:36;;;;;;;1.92;0.35;;;19.40;90.80;;;;;;4955119;28;20027;-74
2022/08/16 04:33:03;;;;;;;1.65;0.40;;;19.10;91.40;;;;;;4954960;28;20054;-73
2022/08/16 04:35:31;;;;;;;1.42;0.40;;;19.10;90.60;;;;;;4953796;29;20506;-73
2022/08/16 04:37:59;;;;;;;2.85;0.35;;;19.10;90.80;;;;;;4953670;29;20031;-74
2022/08/16 04:40:27;;;;;;;0.95;0.10;;;19.20;92.00;;;;;;4953442;28;20491;-74
2022/08/16 04:42:55;;;;;;;1.48;0.30;;;19.00;91.10;;;;;;4954842;28;20109;-76
2022/08/16 04:45:25;;;;;;;1.25;0.30;;;19.00;92.10;;;;;;4937985;29;20047;-74
2022/08/16 04:47:52;;;;;;;2.30;0.50;;;19.00;91.00;;;;;;4953646;29;20032;-74
2022/08/16 04:50:22;;;;;;;1.70;0.30;;;18.90;91.20;;;;;;4953659;29;20058;-73
2022/08/16 04:52:52;;;;;;;2.28;0.40;;;19.00;91.10;;;;;;4953534;29;20392;-74
2022/08/16 04:55:22;;;;;;;0.93;0.30;;;18.80;90.90;;;;;;4953581;29;20118;-73
2022/08/16 04:57:52;;;;;;;0.77;0.20;;;18.70;91.70;;;;;;4954956;28;20035;-74
2022/08/16 05:00:23;;;;;;;1.00;0.20;;;18.60;92.10;;;;;;4954871;28;20463;-73
2022/08/16 05:02:53;;;;;;;0.85;0.40;;;18.60;91.10;;;;;;4954875;28;20387;-72
2022/08/16 05:05:21;;;;;;;1.17;0.30;;;18.60;91.10;;;;;;4955105;28;20035;-72
2022/08/16 05:07:49;;;;;;;1.73;0.50;;;18.50;91.40;;;;;;4953284;29;20039;-72
2022/08/16 05:10:17;;;;;;;1.65;0.32;;;18.60;92.40;;;;;;4955644;28;20023;-71
2022/08/16 05:12:47;;;;;;;1.15;0.50;;;18.50;92.10;;;;;;4958049;28;20046;-73
2022/08/16 05:15:15;;;;;;;0.90;0.40;;;18.50;91.80;;;;;;4957902;28;20043;-72
2022/08/16 05:17:43;;;;;;;1.67;0.50;;;18.30;91.90;;;;;;4957861;28;20071;-72
2022/08/16 05:20:11;;;;;;;1.02;0.30;;;18.40;92.30;;;;;;4958071;28;20483;-73
2022/08/16 05:22:39;;;;;;;0.30;0.20;;;18.30;92.10;;;;;;4956597;29;20099;-73
2022/08/16 05:25:08;;;;;;;2.78;0.40;;;18.30;92.30;;;;;;4956505;29;20028;-73
2022/08/16 05:27:36;;;;;;;1.52;0.32;;;18.40;92.80;;;;;;4957890;28;20020;-73
2022/08/16 05:30:05;;;;;;;0.20;0.20;;;18.10;92.40;;;;;;4956187;29;20031;-72
2022/08/16 05:32:33;;;;;;;1.83;0.30;;;17.90;92.80;;;;;;4956308;29;20435;-72
2022/08/16 05:35:00;;;;;;;0.77;0.38;;;17.70;92.70;;;;;;4957727;28;20016;-73
2022/08/16 05:37:28;;;;;;;1.20;0.20;;;17.80;92.90;;;;;;4956389;29;20471;-73
2022/08/16 05:39:55;;;;;;;0.75;0.20;;;17.80;93.60;;;;;;4955840;28;20051;-73
2022/08/16 05:42:22;;;;;;;1.35;0.30;;;17.60;93.30;;;;;;4956227;29;20063;-73
2022/08/16 05:44:50;;;;;;;0.75;0.35;;;17.50;93.40;;;;;;4956307;29;20059;-72
2022/08/16 05:47:17;;;;;;;1.45;0.20;;;17.40;93.60;;;;;;4956426;29;20042;-73
2022/08/16 05:49:44;;;;;;;0.90;0.40;;;17.50;93.60;;;;;;4957564;28;20391;-75
2022/08/16 05:52:12;;;;;;;1.45;0.45;;;17.60;93.10;;;;;;4956392;29;20020;-74
2022/08/16 05:54:44;;;;;;;1.15;0.20;;;17.40;93.30;;;;;;4956207;29;20023;-74
2022/08/16 05:57:12;;;;;;;0.17;0.17;;;17.30;93.30;;;;;;4940875;29;20344;-74
2022/08/16 05:59:41;;;;;;;1.65;0.30;;;17.20;93.40;;;;;;4956436;29;20118;-74
2022/08/16 06:02:08;;;;;;;2.35;0.25;;;17.20;93.60;;;;;;4956315;29;20483;-74
2022/08/16 06:04:35;;;;;;;1.35;0.30;;;17.10;94.10;;;;;;4957577;28;20031;-74
2022/08/16 06:07:06;;;;;;;1.38;0.20;;;17.00;93.50;;;;;;4956120;29;20502;-73
2022/08/16 06:09:34;;;;;;;0.80;0.30;;;17.00;94.20;;;;;;4957719;28;20031;-75
2022/08/16 06:12:02;;;;;;;1.00;0.22;;;17.00;94.20;;;;;;4955996;29;20031;-73
2022/08/16 06:14:30;;;;;;;2.35;0.30;;;16.90;94.00;;;;;;4957024;28;20078;-75
2022/08/16 06:16:57;;;;;;;4.35;0.50;;;16.80;94.90;;;;;;4955716;29;20047;-71
2022/08/16 06:19:24;;;;;;;4.88;0.50;;;16.90;94.70;;;;;;4957284;28;20024;-73
2022/08/16 06:21:52;;;;;;;2.40;0.60;;;16.90;94.40;;;;;;4955261;28;20031;-77
2022/08/16 06:24:19;;;;;;;1.10;0.38;;;17.00;94.50;;;;;;4957272;28;20031;-76
2022/08/16 06:26:46;;;;;;;1.52;0.40;;;17.20;94.50;;;;;;4957031;28;20023;-71
2022/08/16 06:29:14;;;;;;;1.75;0.50;;;17.20;94.00;;;;;;4955524;29;20031;-73
2022/08/16 06:31:44;;;;;;;0.88;0.40;;;17.20;93.70;;;;;;4956858;28;20107;-71
2022/08/16 06:34:13;;;;;;;0.90;0.50;;;17.30;93.80;;;;;;4955300;29;20031;-73
2022/08/16 06:36:41;;;;;;;0.45;0.28;;;17.30;94.70;;;;;;4955150;29;20027;-74
2022/08/16 06:39:08;;;;;;;1.45;0.50;;;17.20;94.10;;;;;;4954890;28;20038;-73
2022/08/16 06:41:36;;;;;;;0.35;0.32;;;17.20;94.90;;;;;;4955263;29;20085;-73
2022/08/16 06:44:04;;;;;;;1.38;0.40;;;17.20;95.00;;;;;;4955086;29;20403;-72
2022/08/16 06:46:36;;;;;;;2.10;0.20;;;17.20;94.50;;;;;;4956340;28;20077;-72
2022/08/16 06:49:09;;;;;;;0.80;0.25;;;17.10;94.20;;;;;;4956330;28;20066;-72
2022/08/16 06:51:39;;;;;;;0.80;0.47;;;17.00;94.00;;;;;;4956692;28;20016;-73
2022/08/16 06:54:07;;;;;;;1.92;0.60;;;17.00;94.70;;;;;;4955225;29;20023;-73
2022/08/16 06:56:36;;;;;;;1.40;0.40;;;16.80;95.40;;;;;;4954901;29;20023;-72
2022/08/16 06:59:04;;;;;;;0.85;0.22;;;16.70;96.10;;;;;;4938875;29;20166;-73
2022/08/16 07:01:31;;;;;;;1.38;0.20;;;16.60;97.20;;;;;;4954817;29;20459;-73
2022/08/16 07:03:58;;;;;;;1.30;0.50;;;16.50;97.50;;;;;;4956218;28;20028;-74
2022/08/16 07:06:26;;;;;;;3.08;0.40;;;16.40;97.50;;;;;;4954663;29;20063;-74
2022/08/16 07:08:54;;;;;;;4.30;0.55;;;16.30;97.60;;;;;;4954647;29;20046;-73
2022/08/16 07:11:22;;;;;;;0.93;0.50;;;16.30;98.20;;;;;;4954609;29;20019;-74
2022/08/16 07:13:49;;;;;;;1.95;0.40;;;16.20;98.30;;;;;;4954583;29;20453;-73
2022/08/16 07:16:17;;;;;;;1.38;0.52;;;16.20;97.10;;;;;;4954450;29;20029;-73
2022/08/16 07:18:45;;;;;;;1.33;0.60;;;16.10;97.60;;;;;;4956168;28;20023;-72
2022/08/16 07:21:14;;;;;;;2.33;0.85;;;16.10;97.10;;;;;;4955800;28;20410;-72
2022/08/16 07:23:44;;;;;;;3.55;0.85;;;16.10;97.10;;;;;;4955699;28;20024;-72
2022/08/16 07:26:19;;;;;;;1.40;0.70;;;16.10;96.70;;;;;;4955945;28;20027;-73
2022/08/16 07:28:47;;;;;;;1.67;0.80;;;16.10;96.40;;;;;;4955585;28;20031;-72
2022/08/16 07:31:15;;;;;;;1.52;0.73;;;16.00;97.00;;;;;;4955606;28;20022;-73
2022/08/16 07:33:43;;;;;;;1.30;0.55;;;15.90;96.90;;;;;;4955047;28;20361;-73
2022/08/16 07:36:13;;;;;;;1.00;0.60;;;15.90;96.80;;;;;;4955390;28;20094;-72
2022/08/16 07:38:41;;;;;;;2.10;0.85;;;15.90;97.00;;;;;;4955307;28;20031;-73
2022/08/16 07:41:09;;;;;;;2.22;1.13;;;15.90;97.00;;;;;;4954079;28;20191;-72
2022/08/16 07:43:36;;;;;;;2.83;1.13;;;15.90;97.10;;;;;;4954100;29;20027;-72
2022/08/16 07:46:04;;;;;;;3.90;1.40;;;15.80;97.60;;;;;;4954046;29;20081;-71
2022/08/16 07:48:31;;;;;;;2.42;0.60;;;15.70;98.10;;;;;;4954204;29;20039;-72
2022/08/16 07:50:58;;;;;;;3.08;0.95;;;15.70;97.90;;;;;;4954060;29;20050;-73
2022/08/16 07:53:28;;;;;;;2.42;0.70;;;15.60;97.70;;;;;;4955395;28;20062;-72
2022/08/16 07:55:59;;;;;;;2.92;1.02;;;15.60;98.20;;;;;;4955351;28;20434;-73
2022/08/16 07:58:28;;;;;;;2.45;1.10;;;15.50;99.30;;;;;;4953873;29;20027;-72
2022/08/16 08:00:56;;;;;;;1.98;0.80;;;15.50;99.90;;;;;;4955255;28;20476;-73
2022/08/16 08:03:24;;;;;;;2.75;1.27;;;15.50;99.90;;;;;;4955227;28;20110;-73
2022/08/16 08:05:51;;;;;;;4.30;1.02;;;15.40;99.90;;;;;;4953847;29;20031;-74
2022/08/16 08:08:19;;;;;;;4.13;1.55;;;15.30;99.90;;;;;;4953829;29;20028;-74
2022/08/16 08:10:48;;;;;;;4.72;1.77;;;15.30;99.90;;;;;;4955267;28;20074;-74
2022/08/16 08:13:15;;;;;;;3.85;1.33;;;15.20;99.90;;;;;;4938352;29;20078;-74
2022/08/16 08:15:45;;;;;;;4.18;1.42;;;15.20;99.90;;;;;;4955236;28;20016;-75
2022/08/16 08:18:13;;;;;;;5.30;1.25;;;15.10;99.90;;;;;;4955348;28;20110;-75
2022/08/16 08:20:44;;;;;;;4.10;1.90;;;15.00;99.90;;;;;;4954410;29;20031;-76
2022/08/16 08:23:13;;;;;;;4.68;1.70;;;15.00;99.90;;;;;;4955919;28;20078;-76
2022/08/16 08:25:44;;;;;;;3.33;1.90;;;14.90;99.90;;;;;;4956329;28;20030;-76
2022/08/16 08:28:12;;;;;;;5.10;1.88;;;14.90;99.90;;;;;;4955745;28;20031;-75
2022/08/16 08:30:40;;;;;;;6.13;1.58;;;14.80;99.90;;;;;;4955796;28;20024;-75
2022/08/16 08:33:08;;;;;;;5.97;1.65;;;14.70;99.90;;;;;;4954222;29;20570;-76
2022/08/16 08:35:35;;;;;;;3.83;1.50;;;14.60;99.90;;;;;;4954147;29;20031;-76
2022/08/16 08:38:07;;;;;;;3.45;1.98;;;14.50;99.90;;;;;;4955610;28;20059;-74
2022/08/16 08:40:34;;;;;;;6.20;2.28;;;14.50;99.90;;;;;;4953899;28;20047;-75
2022/08/16 08:43:03;;;;;;;10.82;5.53;;;14.40;99.90;;;;;;4955427;28;20079;-75
2022/08/16 08:45:31;;;;;;;13.70;6.40;;;14.50;99.90;;;;;;4956728;28;20035;-76
2022/08/16 08:48:01;;;;;;;6.88;3.78;;;14.40;99.90;;;;;;4959120;28;20033;-75
2022/08/16 08:50:29;;;;;;;7.70;3.97;;;14.30;99.90;;;;;;4957650;29;20062;-76
2022/08/16 08:52:57;;;;;;;6.50;3.10;;;14.20;99.90;;;;;;4957518;29;20257;-75
2022/08/16 08:55:26;;;;;;;6.50;2.80;;;14.20;99.90;;;;;;4958055;29;20027;-76
2022/08/16 08:57:54;;;;;;;5.40;3.17;;;14.10;99.90;;;;;;4957976;29;20451;-75
2022/08/16 09:00:24;;;;;;;6.15;2.83;;;14.10;99.90;;;;;;4959013;28;20023;-75
2022/08/16 09:02:51;;;;;;;4.18;2.80;;;13.90;99.90;;;;;;4959135;28;20019;-75
2022/08/16 09:05:21;;;;;;;6.93;2.95;;;13.90;99.90;;;;;;4957400;29;20391;-75
2022/08/16 09:07:48;;;;;;;4.80;3.42;;;13.80;99.90;;;;;;4959666;28;20473;-77
2022/08/16 09:10:16;;;;;;;6.60;3.95;;;13.80;99.90;;;;;;4959743;28;20023;-77
2022/08/16 09:12:45;;;;;;;4.40;2.40;;;13.90;99.90;;;;;;4959902;28;20027;-78
2022/08/16 09:15:15;;;;;;;4.28;1.75;;;13.90;99.90;;;;;;4958428;29;20030;-77
2022/08/16 09:17:43;;;;;;;4.63;2.70;;;13.90;99.90;;;;;;4959375;29;20479;-78
2022/08/16 09:20:13;;;;;;;4.35;2.38;;;13.90;99.90;;;;;;4958460;29;20089;-79
2022/08/16 09:22:41;;;;;;;5.20;2.67;;;13.90;99.90;;;;;;4961304;28;20031;-79
2022/08/16 09:25:09;;;;;;;5.82;2.83;;;13.80;99.90;;;;;;4957851;29;20507;-79
2022/08/16 09:27:37;;;;;;;5.80;3.35;;;13.80;99.90;;;;;;4960172;28;20023;-79
2022/08/16 09:30:05;;;;;;;9.00;3.13;;;13.80;99.90;;;;;;4959422;29;20038;-80
2022/08/16 09:32:32;;;;;;;4.53;3.10;;;13.90;99.90;;;;;;4959388;29;20038;-79
2022/08/16 09:35:01;;;;;;;5.45;3.05;;;13.90;99.90;;;;;;4960733;29;20019;-81
2022/08/16 09:37:30;;;;;;;4.50;2.80;;;13.90;99.90;;;;;;4945789;29;20039;-81
2022/08/16 09:39:58;;;;;;;4.35;2.22;;;13.80;99.90;;;;;;4962486;28;20416;-81
2022/08/16 09:42:28;;;;;;;3.50;2.20;;;13.70;99.90;;;;;;4961159;29;20027;-80
2022/08/16 09:44:55;;;;;;;4.50;1.77;;;13.60;99.90;;;;;;4929405;29;20198;-80
2022/08/16 09:47:22;;;;;;;4.65;2.22;;;13.60;99.90;;;;;;4958981;29;20034;-77
2022/08/16 09:49:50;;;;;;;4.28;2.25;;;13.50;99.90;;;;;;4957953;29;20035;-79
2022/08/16 09:52:17;;;;;;;4.45;2.10;;;13.50;99.90;;;;;;4961699;28;20466;-79
2022/08/16 09:54:44;;;;;;;9.38;2.50;;;13.40;99.90;;;;;;4958897;28;20102;-80
2022/08/16 09:57:12;;;;;;;3.63;2.00;;;13.30;99.90;;;;;;4957928;28;20019;-78
2022/08/16 09:59:40;;;;;;;5.80;2.30;;;13.40;99.90;;;;;;4957963;29;20035;-79
2022/08/16 10:02:08;;;;;;;5.20;2.47;;;13.40;99.90;;;;;;4958538;29;20035;-78
2022/08/16 10:04:35;;;;;;;5.90;2.00;;;13.30;99.90;;;;;;4958650;29;20035;-80
2022/08/16 10:07:04;;;;;;;5.20;2.45;;;13.20;99.90;;;;;;4960887;28;20098;-81
2022/08/16 10:09:32;;;;;;;4.68;2.55;;;13.10;99.90;;;;;;4957840;29;20485;-80
2022/08/16 10:14:46;;;;;;;3.10;1.50;;;13.10;99.90;;;;;;4958412;29;20074;-78
2022/08/16 10:17:14;;;;;;;2.80;1.42;;;13.30;99.90;;;;;;4962094;28;20106;-79
2022/08/16 10:19:42;;;;;;;2.60;1.58;;;13.30;99.90;;;;;;4961860;29;20066;-82
2022/08/16 10:22:09;;;;;;;4.70;1.45;;;13.30;99.90;;;;;;4957442;29;20027;-80
2022/08/16 10:24:37;;;;;;;3.72;1.58;;;13.40;99.90;;;;;;4956567;29;20615;-82
2022/08/16 10:27:04;;;;;;;3.38;1.10;;;13.40;99.90;;;;;;4957986;28;20042;-81
2022/08/16 10:29:32;;;;;;;4.80;1.30;;;13.40;99.90;;;;;;4956225;29;20027;-77
2022/08/16 10:31:59;;;;;;;4.07;1.08;;;13.40;99.90;;;;;;4958232;28;20031;-78
2022/08/16 10:34:29;;;;;;;3.70;1.30;;;13.40;99.90;;;;;;4959456;28;20026;-77
2022/08/16 10:36:58;;;;;;;2.65;1.20;;;13.40;99.90;;;;;;4959346;29;20023;-77
2022/08/16 10:39:25;;;;;;;2.45;1.00;;;13.30;99.90;;;;;;4959027;28;20035;-78
2022/08/16 10:41:52;;;;;;;3.00;0.95;;;13.30;99.90;;;;;;4957756;29;20081;-79
2022/08/16 10:44:20;;;;;;;2.92;0.90;;;13.20;99.90;;;;;;4959172;28;20027;-78
2022/08/16 10:46:48;;;;;;;1.58;0.80;;;13.10;99.90;;;;;;4959281;28;20106;-77
2022/08/16 10:49:15;;;;;;;2.13;0.80;;;13.10;99.90;;;;;;4940714;29;20090;-77
2022/08/16 10:51:42;;;;;;;2.95;0.80;;;13.00;99.90;;;;;;4957760;28;20082;-76
2022/08/16 10:54:13;;;;;;;1.55;0.73;;;13.00;99.90;;;;;;4956299;29;20024;-76
2022/08/16 10:56:43;;;;;;;2.63;0.90;;;12.90;99.90;;;;;;4955937;29;20078;-76
2022/08/16 10:59:10;;;;;;;1.58;0.63;;;12.90;99.90;;;;;;4957473;28;20036;-76
2022/08/16 11:01:39;;;;;;;1.77;0.80;;;12.80;99.90;;;;;;4956865;28;20502;-76
2022/08/16 11:04:06;;;;;;;1.02;0.70;;;12.80;99.90;;;;;;4940339;29;20528;-76
2022/08/16 11:06:34;;;;;;;1.52;0.90;;;12.70;99.90;;;;;;4957504;28;20035;-78
2022/08/16 11:09:01;;;;;;;1.75;0.65;;;12.60;99.90;;;;;;4957083;28;20031;-76
2022/08/16 11:11:29;;;;;;;1.73;0.70;;;12.60;99.90;;;;;;4957203;28;20015;-76
2022/08/16 11:13:56;;;;;;;1.20;0.63;;;12.50;99.90;;;;;;4956011;29;20076;-77
2022/08/16 11:16:24;;;;;;;2.08;0.60;;;12.50;99.90;;;;;;4958136;28;20032;-77
2022/08/16 11:18:51;;;;;;;2.55;0.50;;;12.60;99.90;;;;;;4957509;28;20031;-77
2022/08/16 11:21:20;;;;;;;1.35;0.70;;;12.60;99.90;;;;;;4955890;29;20024;-78
2022/08/16 11:23:47;;;;;;;2.63;0.82;;;12.50;99.90;;;;;;4955963;29;20031;-77
2022/08/16 11:26:16;;;;;;;1.88;0.82;;;12.40;99.90;;;;;;4956510;29;20035;-77
2022/08/16 11:28:44;;;;;;;1.10;0.50;;;12.30;99.90;;;;;;4957049;29;20062;-76
2022/08/16 11:31:13;;;;;;;1.15;0.57;;;12.30;99.90;;;;;;4957483;28;20388;-76
2022/08/16 11:33:42;;;;;;;1.42;0.60;;;12.20;99.90;;;;;;4956055;29;20034;-76
2022/08/16 11:36:10;;;;;;;1.02;0.50;;;12.10;99.90;;;;;;4956408;29;20031;-76
2022/08/16 11:38:38;;;;;;;0.93;0.60;;;12.10;99.90;;;;;;4956627;29;20034;-76
2022/08/16 11:41:05;;;;;;;2.10;0.70;;;12.10;99.90;;;;;;4955343;28;20054;-76
2022/08/16 11:43:37;;;;;;;2.03;0.52;;;12.00;99.90;;;;;;4955169;29;20023;-76
2022/08/16 11:46:15;;;;;;;1.30;0.50;;;12.00;99.90;;;;;;4955004;29;20062;-76
2022/08/16 11:48:47;;;;;;;1.48;0.63;;;12.00;99.90;;;;;;4956688;28;20123;-75
2022/08/16 11:51:14;;;;;;;1.73;0.50;;;12.00;99.90;;;;;;4954733;29;20508;-76
2022/08/16 11:53:41;;;;;;;1.10;0.60;;;12.00;99.90;;;;;;4955845;28;20026;-76
2022/08/16 11:56:09;;;;;;;1.13;0.60;;;12.00;99.90;;;;;;4956046;28;20032;-77
2022/08/16 11:58:38;;;;;;;3.35;0.90;;;11.90;99.90;;;;;;4939148;29;20505;-76
2022/08/16 12:01:06;;;;;;;0.75;0.57;;;11.90;99.90;;;;;;4955976;28;20027;-76
2022/08/16 12:03:35;;;;;;;0.82;0.50;;;11.90;99.90;;;;;;4956493;28;20039;-76
2022/08/16 12:06:10;;;;;;;1.98;0.90;;;11.80;99.90;;;;;;4956195;28;20078;-75
2022/08/16 12:08:38;;;;;;;2.42;0.85;;;11.80;99.90;;;;;;4954590;29;20090;-77
2022/08/16 12:11:07;;;;;;;2.17;1.05;;;11.80;99.90;;;;;;4954527;29;20046;-77
2022/08/16 12:13:35;;;;;;;1.08;0.70;;;11.80;99.90;;;;;;4955789;28;20024;-76
2022/08/16 12:16:03;;;;;;;2.13;1.00;;;11.80;99.90;;;;;;4954282;29;20027;-78
2022/08/16 12:18:30;;;;;;;1.42;0.73;;;11.80;99.90;;;;;;4954483;28;20038;-76
2022/08/16 12:20:58;;;;;;;1.75;0.80;;;11.80;99.90;;;;;;4960285;28;20059;-76
2022/08/16 12:23:25;;;;;;;2.08;0.90;;;11.80;99.90;;;;;;4958730;29;20483;-77
2022/08/16 12:25:53;;;;;;;1.60;0.80;;;11.80;99.90;;;;;;4958643;29;20492;-76
2022/08/16 12:28:21;;;;;;;1.55;0.85;;;11.80;99.90;;;;;;4959286;28;20020;-78
2022/08/16 12:30:48;;;;;;;3.25;1.05;;;11.80;99.90;;;;;;4958155;29;20545;-77
2022/08/16 12:33:16;;;;;;;1.20;0.73;;;11.70;99.90;;;;;;4958143;29;20110;-77
2022/08/16 12:35:47;;;;;;;1.67;0.88;;;11.70;99.90;;;;;;4958672;29;20031;-78
2022/08/16 12:38:15;;;;;;;2.65;0.90;;;11.70;99.90;;;;;;4959755;28;20442;-78
2022/08/16 12:40:46;;;;;;;1.75;1.00;;;11.70;99.90;;;;;;4959399;28;20110;-77
2022/08/16 12:43:17;;;;;;;1.60;0.93;;;11.60;99.90;;;;;;4958647;29;20034;-78
2022/08/16 12:45:50;;;;;;;1.20;0.80;;;11.60;99.90;;;;;;4960351;28;20027;-77
2022/08/16 12:51:11;;;;;;;1.75;0.65;;;11.60;99.90;;;;;;4959979;29;20030;-77
2022/08/16 12:53:38;;;;;;;1.73;0.70;;;11.50;99.90;;;;;;4959292;29;20470;-77
2022/08/16 12:56:09;;;;;;;2.45;0.90;;;11.40;99.90;;;;;;4958817;29;20495;-77
2022/08/16 12:58:37;;;;;;;1.85;0.80;;;11.40;99.90;;;;;;4961368;28;20034;-77
2022/08/16 13:01:07;;;;;;;2.92;0.90;;;11.40;99.90;;;;;;4960731;28;20046;-78